Portada
METAR-TAF:

METAR-TAF

Aeropuertos :

Aeropuerto de Gibraltar

Gibraltar, Gibraltar

latitud: 36-09N, longitud: 005-21W, altitud: 5 m

Observación

El informe se hizo hace 56 minutos, a las 00:50 UTC
Viento 2 kt del norte-noreste
Temperatura 12°C
Humedad 94%
Presión 1019 hPa
Visibilidad 10 km o más

METAR: LXGB 240050Z AUTO 02002KT 9999 // FEW030/// BKN050/// 12/11 Q1019

Hora: 02:46 (01:46 UTC)

Pronóstico

El informe se hizo hace 9 horas y 1 minutos, a las 16:45 UTC
Pronóstico válido del 23 a las 18 UTC al 23 a las 23 UTC
Viento 7 kt del sur-suroeste
Visibilidad 10 km o más
Cielo nuboso a una altura de 5000 ft
Temporalmente
del 23 a las 18 UTC al 23 a las 23 UTC
Visibilidad: 7000 m
Nubes dispersas a una altura de 2000 ft, Cumulonimbus.
chaparrones de lluvia

TAF: LXGB 231645Z 2318/2323 20007KT 9999 BKN050 TEMPO 2318/2323 7000 SHRA SCT020CB

Observaciones y pronósticos meteorológicos de más de 4000 aeropuertos (mensajes METAR y TAF).

Los puntos amarillos y rojos representan las estaciones disponibles.

Ponga el ratón en el punto deseado para ver el nombre de la estación.

Haga clic para ver las observaciones y los pronósticos meteorológicos.

Para cambiar el mapa : haga clic en los botones verdes con una cruz de color negro para hacer un zoom, en el botón verde con un guión para alejar o en las flechas verdes para mapas adyacentes.


METAR-TAF: